Time,TemperatureF,DewpointF,PressureIn,WindDirection,WindDirectionDegrees,WindSpeedMPH,WindSpeedGustMPH,Humidity,HourlyPrecipIn,Conditions,Clouds,dailyrainin,SoftwareType,DateUTC
2013-11-24 00:08:00,71.0,68.0,30.00,North,349,0.0,-999.0,91,-99.99,,,0.00,weatherlink.com 1.10,2013-11-24 05:08:00,
2013-11-24 00:23:00,70.7,68.0,29.99,North,349,0.0,-999.0,92,-99.99,,,0.00,weatherlink.com 1.10,2013-11-24 05:23:00,
2013-11-24 00:38:00,70.3,68.0,29.99,North,349,0.0,-999.0,92,-99.99,,,0.00,weatherlink.com 1.10,2013-11-24 05:38:00,
2013-11-24 00:53:00,69.7,68.0,29.99,North,349,0.0,-999.0,93,-99.99,,,0.00,weatherlink.com 1.10,2013-11-24 05:53:00,
2013-11-24 01:08:00,69.6,68.0,29.99,North,349,0.0,-999.0,93,-99.99,,,0.00,weatherlink.com 1.10,2013-11-24 06:08:00,
2013-11-24 01:23:00,69.3,68.0,29.99,North,349,0.0,-999.0,94,-99.99,,,0.00,weatherlink.com 1.10,2013-11-24 06:23:00,
2013-11-24 01:38:00,69.0,67.0,29.98,North,349,0.0,-999.0,94,-99.99,,,0.00,weatherlink.com 1.10,2013-11-24 06:38:00,
2013-11-24 01:53:00,69.2,68.0,29.98,North,349,0.0,-999.0,95,-99.99,,,0.00,weatherlink.com 1.10,2013-11-24 06:53:00,
2013-11-24 02:08:00,69.1,68.0,29.98,North,349,0.0,-999.0,95,-99.99,,,0.00,weatherlink.com 1.10,2013-11-24 07:08:00,
2013-11-24 02:24:00,68.9,68.0,29.98,North,349,0.0,-999.0,95,-99.99,,,0.00,weatherlink.com 1.10,2013-11-24 07:24:00,
2013-11-24 02:39:00,68.8,67.0,29.98,North,349,0.0,-999.0,95,-99.99,,,0.00,weatherlink.com 1.10,2013-11-24 07:39:00,
2013-11-24 02:54:00,68.7,67.0,29.98,North,349,0.0,-999.0,95,-99.99,,,0.00,weatherlink.com 1.10,2013-11-24 07:54:00,
2013-11-24 03:09:00,68.6,67.0,29.98,North,349,0.0,-999.0,95,-99.99,,,0.00,weatherlink.com 1.10,2013-11-24 08:09:00,
2013-11-24 03:24:00,68.5,67.0,29.98,NNW,348,0.0,-999.0,95,-99.99,,,0.00,weatherlink.com 1.10,2013-11-24 08:24:00,
2013-11-24 03:39:00,68.5,67.0,29.98,North,349,0.0,-999.0,95,-99.99,,,0.00,weatherlink.com 1.10,2013-11-24 08:39:00,
2013-11-24 03:54:00,68.6,67.0,29.98,NW,325,0.0,-999.0,95,-99.99,,,0.00,weatherlink.com 1.10,2013-11-24 08:54:00,
2013-11-24 04:09:00,68.6,67.0,29.98,NW,325,0.0,-999.0,95,-99.99,,,0.00,weatherlink.com 1.10,2013-11-24 09:09:00,
2013-11-24 04:24:00,68.4,67.0,29.98,NW,325,0.0,-999.0,95,-99.99,,,0.00,weatherlink.com 1.10,2013-11-24 09:24:00,
2013-11-24 04:39:00,68.4,67.0,29.98,NW,326,0.0,-999.0,95,-99.99,,,0.00,weatherlink.com 1.10,2013-11-24 09:39:00,
2013-11-24 04:54:00,68.3,67.0,29.99,NW,318,0.0,-999.0,95,-99.99,,,0.00,weatherlink.com 1.10,2013-11-24 09:54:00,
2013-11-24 05:09:00,68.2,67.0,29.98,NW,318,0.0,-999.0,95,-99.99,,,0.00,weatherlink.com 1.10,2013-11-24 10:09:00,
2013-11-24 05:24:00,67.8,66.0,29.98,NW,318,0.0,-999.0,95,-99.99,,,0.00,weatherlink.com 1.10,2013-11-24 10:24:00,
2013-11-24 05:39:00,67.7,66.0,29.99,NW,316,0.0,-999.0,95,-99.99,,,0.00,weatherlink.com 1.10,2013-11-24 10:39:00,
2013-11-24 05:54:00,67.5,66.0,30.00,NW,317,0.0,-999.0,95,-99.99,,,0.00,weatherlink.com 1.10,2013-11-24 10:54:00,
2013-11-24 06:24:00,67.4,66.0,30.00,NW,316,0.0,-999.0,95,-99.99,,,0.00,weatherlink.com 1.10,2013-11-24 11:24:00,
2013-11-24 06:39:00,67.5,66.0,30.00,NW,317,0.0,-999.0,96,-99.99,,,0.00,weatherlink.com 1.10,2013-11-24 11:39:00,
2013-11-24 06:54:00,67.5,66.0,30.01,NW,318,0.0,-999.0,96,-99.99,,,0.00,weatherlink.com 1.10,2013-11-24 11:54:00,
2013-11-24 07:09:00,67.7,67.0,30.02,NW,319,0.0,-999.0,96,-99.99,,,0.00,weatherlink.com 1.10,2013-11-24 12:09:00,
2013-11-24 07:24:00,68.1,67.0,30.02,NNW,329,1.0,-999.0,96,-99.99,,,0.00,weatherlink.com 1.10,2013-11-24 12:24:00,
2013-11-24 07:39:00,69.0,68.0,30.03,NW,320,1.0,-999.0,96,-99.99,,,0.00,weatherlink.com 1.10,2013-11-24 12:39:00,
2013-11-24 07:54:00,70.1,69.0,30.03,NNW,338,1.0,-999.0,95,-99.99,,,0.00,weatherlink.com 1.10,2013-11-24 12:54:00,
2013-11-24 08:09:00,71.1,69.0,30.04,NW,323,1.0,-999.0,93,-99.99,,,0.00,weatherlink.com 1.10,2013-11-24 13:09:00,
2013-11-24 08:24:00,72.1,69.0,30.05,NW,325,4.0,-999.0,91,-99.99,,,0.00,weatherlink.com 1.10,2013-11-24 13:24:00,
2013-11-24 08:39:00,73.0,70.0,30.05,NNW,333,2.0,-999.0,89,-99.99,,,0.00,weatherlink.com 1.10,2013-11-24 13:39:00,
2013-11-24 08:54:00,73.7,70.0,30.05,NNE,23,3.0,-999.0,88,-99.99,,,0.00,weatherlink.com 1.10,2013-11-24 13:54:00,
2013-11-24 09:09:00,74.8,70.0,30.06,NNW,329,1.0,-999.0,86,-99.99,,,0.00,weatherlink.com 1.10,2013-11-24 14:09:00,
2013-11-24 09:24:00,75.5,70.0,30.06,NNW,331,3.0,-999.0,83,-99.99,,,0.00,weatherlink.com 1.10,2013-11-24 14:24:00,
2013-11-24 09:39:00,76.0,71.0,30.07,NNW,335,3.0,-999.0,83,-99.99,,,0.00,weatherlink.com 1.10,2013-11-24 14:39:00,
2013-11-24 09:54:00,76.5,70.0,30.07,North,350,1.0,-999.0,81,-99.99,,,0.00,weatherlink.com 1.10,2013-11-24 14:54:00,
2013-11-24 10:09:00,77.1,70.0,30.07,NNE,13,2.0,-999.0,79,-99.99,,,0.00,weatherlink.com 1.10,2013-11-24 15:09:00,
2013-11-24 10:24:00,77.7,70.0,30.07,NNW,335,2.0,-999.0,77,-99.99,,,0.00,weatherlink.com 1.10,2013-11-24 15:24:00,
2013-11-24 10:39:00,78.0,70.0,30.07,NW,319,4.0,-999.0,77,-99.99,,,0.00,weatherlink.com 1.10,2013-11-24 15:39:00,
2013-11-24 10:55:00,78.3,68.0,30.07,NNE,26,2.0,-999.0,71,-99.99,,,0.00,weatherlink.com 1.10,2013-11-24 15:55:00,
2013-11-24 11:10:00,79.3,68.0,30.06,NNE,22,4.0,-999.0,69,-99.99,,,0.00,weatherlink.com 1.10,2013-11-24 16:10:00,
2013-11-24 11:25:00,80.3,70.0,30.05,NW,320,2.0,-999.0,71,-99.99,,,0.00,weatherlink.com 1.10,2013-11-24 16:25:00,
2013-11-24 11:40:00,79.4,70.0,30.05,NNE,31,2.0,-999.0,72,-99.99,,,0.00,weatherlink.com 1.10,2013-11-24 16:40:00,
2013-11-24 11:55:00,79.7,70.0,30.05,NNW,329,3.0,-999.0,71,-99.99,,,0.00,weatherlink.com 1.10,2013-11-24 16:55:00,
2013-11-24 12:10:00,79.5,69.0,30.05,NNW,338,7.0,-999.0,70,-99.99,,,0.00,weatherlink.com 1.10,2013-11-24 17:10:00,
2013-11-24 12:25:00,80.6,70.0,30.04,NW,322,2.0,-999.0,69,-99.99,,,0.00,weatherlink.com 1.10,2013-11-24 17:25:00,
2013-11-24 12:40:00,81.1,69.0,30.04,North,350,2.0,-999.0,66,-99.99,,,0.00,weatherlink.com 1.10,2013-11-24 17:40:00,
2013-11-24 12:55:00,81.2,69.0,30.03,NW,310,2.0,-999.0,66,-99.99,,,0.00,weatherlink.com 1.10,2013-11-24 17:55:00,
2013-11-24 13:10:00,81.4,69.0,30.03,NW,314,7.0,-999.0,66,-99.99,,,0.00,weatherlink.com 1.10,2013-11-24 18:10:00,
2013-11-24 13:25:00,81.4,69.0,30.02,NNE,13,2.0,-999.0,65,-99.99,,,0.00,weatherlink.com 1.10,2013-11-24 18:25:00,
2013-11-24 13:40:00,80.9,68.0,30.02,NW,319,8.0,-999.0,64,-99.99,,,0.00,weatherlink.com 1.10,2013-11-24 18:40:00,
2013-11-24 13:55:00,81.1,68.0,30.02,NE,34,4.0,-999.0,64,-99.99,,,0.00,weatherlink.com 1.10,2013-11-24 18:55:00,
2013-11-24 14:10:00,80.7,68.0,30.02,North,351,10.0,-999.0,65,-99.99,,,0.00,weatherlink.com 1.10,2013-11-24 19:10:00,
2013-11-24 14:25:00,79.2,68.0,30.02,NNE,31,2.0,-999.0,68,-99.99,,,0.00,weatherlink.com 1.10,2013-11-24 19:25:00,
2013-11-24 14:40:00,80.2,68.0,30.02,NNW,331,5.0,-999.0,66,-99.99,,,0.00,weatherlink.com 1.10,2013-11-24 19:40:00,
2013-11-24 14:55:00,79.3,67.0,30.02,NE,36,1.0,-999.0,67,-99.99,,,0.00,weatherlink.com 1.10,2013-11-24 19:55:00,
2013-11-24 15:10:00,79.2,68.0,30.03,NNW,332,7.0,-999.0,68,-99.99,,,0.00,weatherlink.com 1.10,2013-11-24 20:10:00,
2013-11-24 15:25:00,79.3,68.0,30.03,West,279,7.0,-999.0,69,-99.99,,,0.00,weatherlink.com 1.10,2013-11-24 20:25:00,
2013-11-24 15:40:00,78.4,68.0,30.04,North,11,7.0,-999.0,70,-99.99,,,0.00,weatherlink.com 1.10,2013-11-24 20:40:00,
2013-11-24 15:55:00,76.2,69.0,30.05,ENE,77,1.0,-999.0,78,-99.99,,,0.00,weatherlink.com 1.10,2013-11-24 20:55:00,
2013-11-24 16:25:00,73.0,69.0,30.06,East,84,3.0,-999.0,87,-99.99,,,0.01,weatherlink.com 1.10,2013-11-24 21:25:00,
2013-11-24 16:40:00,71.4,68.0,30.06,NNE,32,1.0,-999.0,90,-99.99,,,0.01,weatherlink.com 1.10,2013-11-24 21:40:00,
2013-11-24 16:55:00,70.9,68.0,30.06,ENE,67,3.0,-999.0,91,-99.99,,,0.01,weatherlink.com 1.10,2013-11-24 21:55:00,
2013-11-24 17:10:00,71.2,69.0,30.06,North,350,1.0,-999.0,91,-99.99,,,0.01,weatherlink.com 1.10,2013-11-24 22:10:00,
2013-11-24 17:25:00,71.4,69.0,30.06,ENE,74,1.0,-999.0,91,-99.99,,,0.01,weatherlink.com 1.10,2013-11-24 22:25:00,
2013-11-24 17:40:00,71.7,69.0,30.06,NE,43,1.0,-999.0,91,-99.99,,,0.01,weatherlink.com 1.10,2013-11-24 22:40:00,
2013-11-24 17:55:00,71.6,68.0,30.06,NNW,344,3.0,-999.0,89,-99.99,,,0.01,weatherlink.com 1.10,2013-11-24 22:55:00,
2013-11-24 18:10:00,72.4,68.0,30.07,NE,35,2.0,-999.0,86,-99.99,,,0.01,weatherlink.com 1.10,2013-11-24 23:10:00,
2013-11-24 18:25:00,73.0,68.0,30.08,NW,311,0.0,-999.0,84,-99.99,,,0.02,weatherlink.com 1.10,2013-11-24 23:25:00,
2013-11-24 18:40:00,71.0,68.0,30.09,ENE,75,1.0,-999.0,89,-99.99,,,0.07,weatherlink.com 1.10,2013-11-24 23:40:00,
2013-11-24 18:55:00,70.7,68.0,30.09,ENE,66,4.0,-999.0,90,-99.99,,,0.07,weatherlink.com 1.10,2013-11-24 23:55:00,
2013-11-24 19:10:00,71.6,68.0,30.09,ENE,61,2.0,-999.0,87,-99.99,,,0.07,weatherlink.com 1.10,2013-11-25 00:10:00,
2013-11-24 19:25:00,72.2,68.0,30.10,NNE,22,2.0,-999.0,85,-99.99,,,0.07,weatherlink.com 1.10,2013-11-25 00:25:00,
2013-11-24 19:40:00,72.6,67.0,30.10,East,82,10.0,-999.0,83,-99.99,,,0.07,weatherlink.com 1.10,2013-11-25 00:40:00,
2013-11-24 19:55:00,72.9,67.0,30.10,NW,316,9.0,-999.0,82,-99.99,,,0.07,weatherlink.com 1.10,2013-11-25 00:55:00,
2013-11-24 20:10:00,72.8,67.0,30.10,ENE,69,8.0,-999.0,81,-99.99,,,0.07,weatherlink.com 1.10,2013-11-25 01:10:00,
2013-11-24 20:25:00,72.6,67.0,30.11,ENE,69,5.0,-999.0,81,-99.99,,,0.07,weatherlink.com 1.10,2013-11-25 01:25:00,
2013-11-24 20:40:00,72.0,66.0,30.11,ENE,61,10.0,-999.0,82,-99.99,,,0.07,weatherlink.com 1.10,2013-11-25 01:40:00,
2013-11-24 20:55:00,72.7,66.0,30.11,ESE,115,7.0,-999.0,79,-99.99,,,0.07,weatherlink.com 1.10,2013-11-25 01:55:00,
2013-11-24 21:10:00,73.0,65.0,30.11,NE,49,10.0,-999.0,77,-99.99,,,0.07,weatherlink.com 1.10,2013-11-25 02:10:00,
2013-11-24 21:25:00,73.0,65.0,30.12,ENE,58,1.0,-999.0,77,-99.99,,,0.07,weatherlink.com 1.10,2013-11-25 02:25:00,
2013-11-24 21:40:00,72.8,65.0,30.13,NNE,27,3.0,-999.0,77,-99.99,,,0.07,weatherlink.com 1.10,2013-11-25 02:40:00,
2013-11-24 21:55:00,73.0,65.0,30.13,ENE,62,3.0,-999.0,77,-99.99,,,0.07,weatherlink.com 1.10,2013-11-25 02:55:00,
2013-11-24 22:10:00,73.0,65.0,30.13,East,80,7.0,-999.0,75,-99.99,,,0.07,weatherlink.com 1.10,2013-11-25 03:10:00,
2013-11-24 22:25:00,73.0,65.0,30.13,ENE,57,2.0,-999.0,75,-99.99,,,0.07,weatherlink.com 1.10,2013-11-25 03:25:00,
2013-11-24 22:40:00,72.9,65.0,30.13,ENE,59,5.0,-999.0,75,-99.99,,,0.07,weatherlink.com 1.10,2013-11-25 03:40:00,
2013-11-24 22:55:00,73.0,64.0,30.13,East,96,7.0,-999.0,74,-99.99,,,0.07,weatherlink.com 1.10,2013-11-25 03:55:00,
2013-11-24 23:10:00,72.9,64.0,30.13,NE,42,9.0,-999.0,74,-99.99,,,0.07,weatherlink.com 1.10,2013-11-25 04:10:00,
2013-11-24 23:25:00,72.7,64.0,30.13,ENE,76,7.0,-999.0,75,-99.99,,,0.07,weatherlink.com 1.10,2013-11-25 04:25:00,
2013-11-24 23:40:00,72.9,65.0,30.13,ENE,67,4.0,-999.0,75,-99.99,,,0.07,weatherlink.com 1.10,2013-11-25 04:40:00,
2013-11-24 23:55:00,72.4,64.0,30.13,ESE,123,7.0,-999.0,76,-99.99,,,0.07,weatherlink.com 1.10,2013-11-25 04:55:00,